"WATCHING THE WEATHER TO PROTECT LIFE AND PROPERTY"


Aviation
Satellite (InfraRed)


TNCA 271500Z 07017KT 9999N FEW019 30/23 Q1016 A3001 NOSIG
TNCB 271455Z 08017KT 9999 FEW023 29/22 Q1016
TNCC 271500Z 07011KT 9999 FEW020 30/23 Q1017 NOSIG